createdAt,value
2018-04-25T00:00:05.347Z,11.60
2018-04-25T00:02:33.823Z,11.70
2018-04-25T00:05:01.541Z,11.60
2018-04-25T00:07:29.193Z,11.70
2018-04-25T00:09:56.895Z,11.70
2018-04-25T00:12:24.570Z,11.70
2018-04-25T00:14:52.238Z,11.60
2018-04-25T00:17:19.966Z,11.60
2018-04-25T00:19:47.643Z,11.60
2018-04-25T00:22:15.279Z,11.70
2018-04-25T00:24:43.712Z,11.60
2018-04-25T00:27:11.389Z,11.60
2018-04-25T00:29:39.011Z,11.60
2018-04-25T00:32:06.688Z,11.60
2018-04-25T00:34:34.399Z,11.60
2018-04-25T00:37:02.806Z,11.50
2018-04-25T00:39:30.506Z,11.50
2018-04-25T00:41:58.218Z,11.50
2018-04-25T00:44:26.033Z,11.50
2018-04-25T00:46:53.714Z,11.50
2018-04-25T00:49:22.202Z,11.40
2018-04-25T00:51:50.669Z,11.50
2018-04-25T00:54:18.417Z,11.40
2018-04-25T00:56:46.152Z,11.40
2018-04-25T00:59:13.856Z,11.40
2018-04-25T01:01:41.574Z,11.40
2018-04-25T01:04:09.307Z,11.40
2018-04-25T01:06:37.036Z,11.30
2018-04-25T01:09:04.824Z,11.30
2018-04-25T01:11:33.293Z,11.20
2018-04-25T01:14:00.974Z,11.20
2018-04-25T01:16:28.705Z,11.20
2018-04-25T01:18:56.433Z,11.20
2018-04-25T01:21:24.129Z,11.20
2018-04-25T01:23:51.870Z,11.20
2018-04-25T01:26:19.615Z,11.10
2018-04-25T01:28:49.254Z,11.10
2018-04-25T01:31:20.544Z,11.00
2018-04-25T01:33:54.967Z,11.00
2018-04-25T01:36:32.238Z,10.90
2018-04-25T01:39:02.855Z,10.90
2018-04-25T01:41:31.319Z,10.90
2018-04-25T01:43:59.055Z,10.90
2018-04-25T01:46:28.583Z,10.80
2018-04-25T01:49:05.942Z,10.80
2018-04-25T01:51:45.324Z,10.80
2018-04-25T01:54:24.715Z,10.70
2018-04-25T01:57:04.131Z,10.70
2018-04-25T01:59:43.694Z,10.70
2018-04-25T02:02:10.853Z,10.70
2018-04-25T02:04:38.485Z,10.70
2018-04-25T02:07:06.152Z,10.60
2018-04-25T02:09:33.831Z,10.50
2018-04-25T02:12:01.471Z,10.50
2018-04-25T02:14:29.166Z,10.50
2018-04-25T02:16:56.819Z,10.50
2018-04-25T02:19:24.453Z,10.50
2018-04-25T02:21:52.139Z,10.50
2018-04-25T02:24:19.799Z,10.50
2018-04-25T02:26:47.441Z,10.40
2018-04-25T02:29:15.095Z,10.40
2018-04-25T02:31:42.749Z,10.40
2018-04-25T02:34:10.375Z,10.40
2018-04-25T02:36:38.056Z,10.40
2018-04-25T02:39:05.714Z,10.40
2018-04-25T02:41:33.329Z,10.30
2018-04-25T02:44:00.989Z,10.30
2018-04-25T02:46:29.446Z,10.40
2018-04-25T02:48:57.086Z,10.30
2018-04-25T02:51:24.758Z,10.40
2018-04-25T02:53:52.423Z,10.40
2018-04-25T02:56:20.049Z,10.40
2018-04-25T02:58:47.788Z,10.50
2018-04-25T03:01:15.431Z,10.50
2018-04-25T03:03:43.835Z,10.60
2018-04-25T03:06:11.500Z,10.50
2018-04-25T03:08:39.163Z,10.50
2018-04-25T03:11:06.802Z,10.50
2018-04-25T03:13:34.464Z,10.60
2018-04-25T03:16:02.221Z,10.60
2018-04-25T03:18:30.625Z,10.50
2018-04-25T03:20:58.292Z,10.50
2018-04-25T03:23:25.946Z,10.60
2018-04-25T03:25:54.369Z,10.50
2018-04-25T03:28:22.036Z,10.40
2018-04-25T03:30:50.463Z,10.50
2018-04-25T03:33:18.111Z,10.50
2018-04-25T03:35:45.784Z,10.60
2018-04-25T03:38:13.470Z,10.60
2018-04-25T03:40:41.099Z,10.70
2018-04-25T03:43:08.766Z,10.70
2018-04-25T03:45:37.239Z,10.70
2018-04-25T03:48:04.885Z,10.60
2018-04-25T03:50:32.566Z,10.70
2018-04-25T03:53:00.225Z,10.70
2018-04-25T03:55:27.886Z,10.70
2018-04-25T03:57:55.547Z,10.70
2018-04-25T04:00:23.209Z,10.70
2018-04-25T04:02:50.897Z,10.60
2018-04-25T04:05:18.571Z,10.60
2018-04-25T04:07:46.266Z,10.60
2018-04-25T04:10:13.911Z,10.70
2018-04-25T04:12:43.377Z,10.70
2018-04-25T04:15:11.046Z,10.70
2018-04-25T04:17:38.690Z,10.80
2018-04-25T04:20:06.364Z,10.80
2018-04-25T04:22:34.049Z,10.90
2018-04-25T04:25:02.461Z,11.00
2018-04-25T04:27:30.145Z,11.00
2018-04-25T04:29:58.680Z,11.20
2018-04-25T04:32:26.367Z,11.40
2018-04-25T04:34:54.135Z,11.60
2018-04-25T04:37:21.823Z,11.70
2018-04-25T04:39:49.466Z,11.80
2018-04-25T04:42:17.173Z,12.00
2018-04-25T04:44:45.636Z,12.20
2018-04-25T04:47:13.286Z,12.20
2018-04-25T04:49:40.939Z,12.40
2018-04-25T04:52:08.624Z,12.40
2018-04-25T04:54:36.265Z,12.50
2018-04-25T04:57:03.997Z,12.60
2018-04-25T04:59:31.675Z,12.60
2018-04-25T05:01:59.338Z,12.60
2018-04-25T05:04:27.012Z,12.60
2018-04-25T05:06:54.689Z,12.70
2018-04-25T05:09:22.345Z,12.70
2018-04-25T05:11:50.024Z,12.80
2018-04-25T05:14:17.691Z,12.90
2018-04-25T05:16:46.095Z,13.20
2018-04-25T05:19:13.754Z,13.20
2018-04-25T05:21:41.425Z,13.40
2018-04-25T05:24:09.052Z,13.60
2018-04-25T05:26:36.743Z,13.70
2018-04-25T05:29:04.392Z,13.90
2018-04-25T05:31:32.053Z,14.00
2018-04-25T05:33:59.723Z,14.30
2018-04-25T05:36:27.428Z,14.40
2018-04-25T05:38:55.103Z,14.60
2018-04-25T05:41:23.536Z,15.00
2018-04-25T05:43:51.199Z,15.00
2018-04-25T05:46:18.831Z,15.30
2018-04-25T05:48:46.499Z,15.50
2018-04-25T05:51:14.158Z,15.80
2018-04-25T05:53:41.801Z,16.10
2018-04-25T05:56:09.509Z,16.40
2018-04-25T05:58:37.223Z,16.50
2018-04-25T06:01:04.866Z,16.80
2018-04-25T06:03:33.310Z,17.00
2018-04-25T06:06:01.041Z,17.00
2018-04-25T06:08:28.676Z,17.30
2018-04-25T06:10:56.395Z,17.40
2018-04-25T06:13:24.098Z,17.50
2018-04-25T06:15:51.837Z,17.70
2018-04-25T06:18:19.506Z,17.90
2018-04-25T06:20:47.973Z,18.20
2018-04-25T06:23:15.640Z,18.20
2018-04-25T06:25:44.070Z,18.30
2018-04-25T06:28:12.229Z,18.20
2018-04-25T06:30:39.824Z,18.30
2018-04-25T06:33:07.534Z,18.40
2018-04-25T06:35:35.198Z,18.50
2018-04-25T06:38:02.923Z,18.70
2018-04-25T06:40:30.592Z,18.80
2018-04-25T06:42:58.290Z,19.00
2018-04-25T06:45:25.966Z,19.00
2018-04-25T06:47:53.697Z,19.20
2018-04-25T06:50:22.178Z,19.30
2018-04-25T06:52:49.845Z,19.30
2018-04-25T06:57:50.303Z,19.50
2018-04-25T07:00:17.978Z,19.50
2018-04-25T07:02:45.693Z,19.70
2018-04-25T07:05:14.100Z,20.10
2018-04-25T07:07:41.778Z,20.00
2018-04-25T07:10:09.437Z,20.20
2018-04-25T07:12:37.945Z,20.30
2018-04-25T07:15:05.674Z,20.30
2018-04-25T07:17:33.362Z,20.30
2018-04-25T07:20:01.063Z,20.20
2018-04-25T07:22:28.829Z,20.30
2018-04-25T07:24:56.564Z,20.40
2018-04-25T07:27:24.218Z,20.50
2018-04-25T07:29:51.886Z,20.60
2018-04-25T07:32:20.312Z,20.70
2018-04-25T07:34:47.966Z,20.70
2018-04-25T07:37:15.632Z,20.80
2018-04-25T07:39:43.306Z,20.80
2018-04-25T07:42:10.947Z,21.00
2018-04-25T07:44:38.636Z,20.90
2018-04-25T07:47:06.326Z,21.10
2018-04-25T07:49:34.748Z,21.30
2018-04-25T07:52:02.421Z,21.30
2018-04-25T07:54:30.100Z,21.50
2018-04-25T07:56:57.736Z,21.80
2018-04-25T07:59:25.411Z,22.00
2018-04-25T08:01:53.894Z,22.20
2018-04-25T08:04:21.531Z,22.30
2018-04-25T08:06:49.202Z,22.10
2018-04-25T08:09:16.858Z,22.30
2018-04-25T08:11:44.507Z,22.60
2018-04-25T08:14:23.911Z,22.60
2018-04-25T08:17:04.271Z,22.80
2018-04-25T08:19:44.652Z,22.70
2018-04-25T08:22:12.319Z,22.70
2018-04-25T08:24:39.964Z,22.60
2018-04-25T08:27:07.661Z,22.70
2018-04-25T08:29:35.333Z,22.80
2018-04-25T08:32:02.994Z,23.00
2018-04-25T08:34:31.487Z,23.10
2018-04-25T08:36:59.158Z,23.10
2018-04-25T08:39:27.586Z,23.10
2018-04-25T08:41:55.276Z,23.10
2018-04-25T08:44:22.986Z,23.10
2018-04-25T08:46:50.638Z,23.30
2018-04-25T08:49:19.076Z,23.20
2018-04-25T08:51:46.738Z,23.10
2018-04-25T08:54:14.395Z,23.20
2018-04-25T08:56:42.087Z,23.50
2018-04-25T08:59:10.532Z,24.10
2018-04-25T09:01:38.187Z,24.10
2018-04-25T09:04:05.908Z,23.80
2018-04-25T09:06:33.591Z,23.50
2018-04-25T09:09:01.230Z,23.50
2018-04-25T09:11:28.896Z,23.70
2018-04-25T09:13:56.587Z,24.10
2018-04-25T09:16:24.227Z,24.40
2018-04-25T09:18:51.895Z,24.70
2018-04-25T09:21:19.575Z,24.60
2018-04-25T09:23:47.247Z,24.00
2018-04-25T09:26:14.910Z,24.00
2018-04-25T09:28:42.610Z,24.20
2018-04-25T09:31:10.258Z,24.20
2018-04-25T09:33:38.854Z,24.40
2018-04-25T09:36:06.558Z,24.30
2018-04-25T09:38:34.199Z,24.20
2018-04-25T09:41:01.866Z,24.00
2018-04-25T09:43:29.583Z,23.90
2018-04-25T09:45:57.280Z,23.70
2018-04-25T09:48:24.937Z,23.50
2018-04-25T09:50:52.674Z,23.30
2018-04-25T09:53:20.329Z,23.40
2018-04-25T09:55:47.994Z,23.50
2018-04-25T09:58:15.670Z,23.30
2018-04-25T10:00:49.016Z,23.10
2018-04-25T10:03:22.395Z,23.30
2018-04-25T10:05:50.099Z,23.50
2018-04-25T10:08:17.806Z,23.80
2018-04-25T10:10:45.501Z,24.20
2018-04-25T10:13:13.188Z,24.60
2018-04-25T10:15:40.886Z,24.40
2018-04-25T10:18:08.576Z,24.00
2018-04-25T10:20:36.287Z,23.60
2018-04-25T10:23:03.950Z,23.20
2018-04-25T10:25:31.691Z,23.10
2018-04-25T10:27:59.283Z,22.90
2018-04-25T10:30:26.954Z,22.70
2018-04-25T10:32:54.607Z,22.40
2018-04-25T10:35:22.288Z,22.50
2018-04-25T10:37:50.008Z,22.90
2018-04-25T10:40:17.641Z,23.20
2018-04-25T10:42:46.091Z,23.10
2018-04-25T10:45:13.764Z,23.10
2018-04-25T10:47:42.203Z,23.00
2018-04-25T10:50:09.877Z,23.00
2018-04-25T10:52:37.540Z,23.10
2018-04-25T10:55:05.229Z,23.20
2018-04-25T10:57:33.673Z,23.60
2018-04-25T11:00:01.364Z,23.60
2018-04-25T11:02:29.853Z,24.20
2018-04-25T11:04:57.575Z,24.20
2018-04-25T11:07:25.261Z,23.90
2018-04-25T11:09:53.678Z,23.30
2018-04-25T11:12:21.351Z,23.30
2018-04-25T11:14:49.028Z,23.20
2018-04-25T11:17:16.709Z,23.00
2018-04-25T11:19:44.392Z,22.80
2018-04-25T11:22:12.810Z,22.70
2018-04-25T11:24:40.462Z,22.70
2018-04-25T11:27:08.144Z,22.80
2018-04-25T11:29:35.816Z,22.90
2018-04-25T11:32:03.479Z,23.10
2018-04-25T11:34:31.154Z,23.30
2018-04-25T11:36:59.606Z,23.80
2018-04-25T11:39:27.254Z,23.80
2018-04-25T11:41:54.932Z,23.90
2018-04-25T11:44:22.584Z,24.00
2018-04-25T11:46:50.294Z,23.90
2018-04-25T11:49:18.762Z,23.50
2018-04-25T11:51:46.447Z,23.50
2018-04-25T11:54:14.123Z,23.50
2018-04-25T11:56:41.834Z,23.70
2018-04-25T11:59:09.505Z,23.80
2018-04-25T12:01:37.921Z,23.80
2018-04-25T12:04:05.685Z,23.80
2018-04-25T12:06:33.363Z,23.80
2018-04-25T12:09:01.002Z,23.80
2018-04-25T12:11:28.685Z,23.90
2018-04-25T12:13:56.381Z,23.80
2018-04-25T12:16:24.067Z,23.80
2018-04-25T12:18:51.755Z,23.70
2018-04-25T12:21:19.405Z,23.70
2018-04-25T12:23:47.047Z,23.90
2018-04-25T12:26:14.702Z,23.90
2018-04-25T12:28:43.136Z,24.00
2018-04-25T12:31:10.794Z,24.00
2018-04-25T12:33:38.501Z,24.00
2018-04-25T12:36:06.979Z,24.10
2018-04-25T12:38:36.388Z,24.10
2018-04-25T12:41:04.844Z,24.10
2018-04-25T12:43:32.532Z,24.00
2018-04-25T12:46:00.168Z,24.10
2018-04-25T12:48:28.614Z,24.20
2018-04-25T12:50:56.267Z,24.20
2018-04-25T12:53:23.907Z,24.20
2018-04-25T12:55:51.587Z,24.10
2018-04-25T12:58:19.255Z,24.10
2018-04-25T13:00:47.003Z,24.20
2018-04-25T13:03:14.766Z,24.10
2018-04-25T13:05:42.498Z,24.00
2018-04-25T13:08:10.174Z,23.90
2018-04-25T13:10:37.883Z,23.70
2018-04-25T13:13:05.640Z,23.80
2018-04-25T13:15:33.334Z,23.90
2018-04-25T13:18:01.049Z,24.00
2018-04-25T13:20:28.768Z,24.10
2018-04-25T13:22:56.416Z,24.00
2018-04-25T13:25:24.862Z,24.00
2018-04-25T13:27:52.542Z,24.00
2018-04-25T13:30:20.963Z,23.80
2018-04-25T13:32:49.401Z,23.50
2018-04-25T13:35:17.839Z,23.50
2018-04-25T13:37:45.561Z,23.40
2018-04-25T13:40:13.205Z,23.40
2018-04-25T13:42:40.943Z,23.50
2018-04-25T13:45:08.624Z,23.60
2018-04-25T13:47:37.076Z,23.80
2018-04-25T13:50:04.773Z,23.80
2018-04-25T13:52:32.475Z,23.80
2018-04-25T13:55:00.116Z,23.80
2018-04-25T13:57:27.809Z,23.80
2018-04-25T13:59:55.484Z,23.80
2018-04-25T14:02:23.148Z,23.70
2018-04-25T14:04:50.820Z,23.80
2018-04-25T14:07:19.254Z,23.70
2018-04-25T14:09:46.977Z,23.70
2018-04-25T14:12:15.395Z,23.50
2018-04-25T14:14:43.045Z,23.50
2018-04-25T14:17:10.720Z,23.40
2018-04-25T14:19:38.378Z,23.40
2018-04-25T14:22:06.025Z,23.30
2018-04-25T14:24:33.748Z,23.20
2018-04-25T14:27:02.192Z,23.00
2018-04-25T14:29:29.847Z,22.90
2018-04-25T14:31:57.515Z,23.00
2018-04-25T14:34:25.195Z,23.00
2018-04-25T14:36:52.869Z,22.90
2018-04-25T14:39:21.301Z,22.70
2018-04-25T14:41:48.958Z,22.70
2018-04-25T14:44:16.585Z,22.70
2018-04-25T14:46:44.263Z,22.70
2018-04-25T14:49:11.942Z,22.80
2018-04-25T14:51:39.572Z,22.80
2018-04-25T14:54:07.260Z,22.80
2018-04-25T14:56:34.929Z,22.80
2018-04-25T14:59:02.615Z,22.80
2018-04-25T15:01:31.086Z,22.80
2018-04-25T15:03:58.729Z,22.80
2018-04-25T15:06:26.411Z,22.90
2018-04-25T15:08:54.084Z,22.80
2018-04-25T15:11:21.750Z,22.90
2018-04-25T15:13:50.192Z,23.00
2018-04-25T15:16:17.863Z,23.00
2018-04-25T15:18:45.509Z,22.90
2018-04-25T15:21:13.205Z,22.80
2018-04-25T15:23:41.084Z,22.70
2018-04-25T15:26:08.731Z,22.70
2018-04-25T15:28:37.159Z,22.60
2018-04-25T15:31:04.818Z,22.60
2018-04-25T15:33:32.451Z,22.50
2018-04-25T15:36:00.118Z,22.60
2018-04-25T15:38:27.806Z,22.60
2018-04-25T15:40:55.462Z,22.50
2018-04-25T15:43:23.922Z,22.40
2018-04-25T15:45:51.591Z,22.40
2018-04-25T15:48:19.272Z,22.50
2018-04-25T15:50:46.954Z,22.40
2018-04-25T15:53:14.682Z,22.30
2018-04-25T15:55:42.328Z,22.30
2018-04-25T15:58:10.023Z,22.30
2018-04-25T16:00:37.703Z,22.30
2018-04-25T16:03:06.108Z,22.30
2018-04-25T16:05:33.802Z,22.30
2018-04-25T16:08:01.458Z,22.30
2018-04-25T16:10:29.166Z,22.20
2018-04-25T16:12:57.589Z,22.10
2018-04-25T16:15:25.288Z,22.10
2018-04-25T16:17:52.940Z,22.00
2018-04-25T16:20:20.595Z,22.00
2018-04-25T16:22:48.282Z,22.10
2018-04-25T16:25:16.689Z,21.90
2018-04-25T16:27:44.354Z,21.90
2018-04-25T16:30:12.019Z,21.80
2018-04-25T16:32:39.678Z,21.80
2018-04-25T16:35:07.363Z,21.80
2018-04-25T16:37:35.023Z,21.80
2018-04-25T16:40:02.673Z,21.80
2018-04-25T16:42:30.334Z,21.80
2018-04-25T16:44:58.001Z,21.80
2018-04-25T16:47:25.636Z,21.70
2018-04-25T16:49:53.302Z,21.80
2018-04-25T16:52:20.962Z,21.80
2018-04-25T16:54:48.629Z,21.70
2018-04-25T16:57:16.301Z,21.70
2018-04-25T16:59:44.788Z,21.60
2018-04-25T17:02:12.446Z,21.60
2018-04-25T17:04:40.131Z,21.50
2018-04-25T17:07:07.799Z,21.50
2018-04-25T17:09:36.273Z,21.40
2018-04-25T17:12:03.951Z,21.40
2018-04-25T17:14:32.395Z,21.40
2018-04-25T17:17:00.048Z,21.40
2018-04-25T17:19:27.780Z,21.40
2018-04-25T17:21:55.447Z,21.40
2018-04-25T17:24:23.099Z,21.20
2018-04-25T17:26:50.794Z,21.10
2018-04-25T17:29:18.497Z,21.10
2018-04-25T17:31:46.951Z,20.90
2018-04-25T17:34:14.627Z,20.90
2018-04-25T17:36:43.470Z,20.60
2018-04-25T17:39:11.312Z,20.60
2018-04-25T17:41:38.999Z,20.60
2018-04-25T17:44:06.688Z,20.60
2018-04-25T17:46:34.331Z,20.30
2018-04-25T17:49:02.074Z,20.10
2018-04-25T17:51:29.774Z,19.90
2018-04-25T17:53:57.442Z,19.80
2018-04-25T17:56:25.202Z,19.50
2018-04-25T17:58:52.994Z,19.20
2018-04-25T18:01:20.931Z,19.00
2018-04-25T18:03:48.811Z,18.90
2018-04-25T18:06:16.842Z,18.70
2018-04-25T18:08:46.117Z,18.60
2018-04-25T18:11:13.915Z,18.60
2018-04-25T18:13:41.775Z,18.50
2018-04-25T18:16:10.515Z,18.50
2018-04-25T18:18:38.424Z,18.40
2018-04-25T18:21:07.199Z,18.30
2018-04-25T18:23:35.969Z,18.20
2018-04-25T18:26:05.267Z,18.20
2018-04-25T18:28:33.323Z,18.20
2018-04-25T18:31:01.157Z,18.10
2018-04-25T18:33:29.054Z,18.00
2018-04-25T18:35:56.730Z,17.90
2018-04-25T18:38:24.374Z,17.90
2018-04-25T18:40:52.095Z,17.90
2018-04-25T18:43:20.562Z,17.70
2018-04-25T18:45:49.048Z,17.70
2018-04-25T18:48:16.772Z,17.70
2018-04-25T18:50:44.732Z,17.70
2018-04-25T18:53:12.515Z,17.60
2018-04-25T18:55:40.290Z,17.60
2018-04-25T18:58:08.164Z,17.50
2018-04-25T19:00:36.009Z,17.50
2018-04-25T19:03:04.580Z,17.40
2018-04-25T19:05:32.443Z,17.20
2018-04-25T19:08:00.325Z,17.10
2018-04-25T19:10:28.005Z,17.10
2018-04-25T19:12:55.746Z,17.10
2018-04-25T19:15:23.522Z,17.10
2018-04-25T19:17:51.227Z,17.10
2018-04-25T19:20:19.810Z,17.10
2018-04-25T19:22:47.698Z,17.10
2018-04-25T19:25:17.213Z,17.10
2018-04-25T19:27:45.199Z,17.20
2018-04-25T19:30:13.137Z,17.10
2018-04-25T19:32:41.036Z,17.10
2018-04-25T19:35:09.024Z,17.20
2018-04-25T19:37:37.041Z,17.10
2018-04-25T19:40:04.806Z,17.10
2018-04-25T19:42:32.558Z,17.10
2018-04-25T19:45:00.275Z,17.00
2018-04-25T19:47:28.696Z,16.90
2018-04-25T19:49:56.500Z,16.90
2018-04-25T19:52:24.954Z,16.70
2018-04-25T19:54:52.713Z,16.70
2018-04-25T19:57:20.559Z,16.70
2018-04-25T19:59:48.471Z,16.60
2018-04-25T20:02:17.049Z,16.50
2018-04-25T20:04:44.944Z,16.50
2018-04-25T20:07:12.917Z,16.50
2018-04-25T20:09:40.846Z,16.50
2018-04-25T20:12:09.628Z,16.40
2018-04-25T20:14:37.538Z,16.40
2018-04-25T20:17:05.498Z,16.40
2018-04-25T20:19:33.460Z,16.30
2018-04-25T20:22:01.327Z,16.20
2018-04-25T20:24:29.078Z,16.20
2018-04-25T20:26:57.610Z,16.10
2018-04-25T20:29:25.373Z,16.10
2018-04-25T20:31:53.006Z,16.10
2018-04-25T20:34:20.670Z,16.10
2018-04-25T20:36:48.340Z,16.00
2018-04-25T20:39:15.996Z,15.90
2018-04-25T20:41:44.567Z,15.90
2018-04-25T20:44:13.691Z,15.80
2018-04-25T20:46:41.517Z,15.70
2018-04-25T20:49:09.597Z,15.70
2018-04-25T20:51:37.588Z,15.80
2018-04-25T20:54:05.715Z,15.80
2018-04-25T20:56:34.906Z,16.00
2018-04-25T20:59:02.740Z,16.00
2018-04-25T21:01:31.595Z,16.00
2018-04-25T21:04:00.148Z,16.00
2018-04-25T21:06:28.049Z,16.10
2018-04-25T21:08:56.752Z,16.10
2018-04-25T21:11:25.158Z,16.20
2018-04-25T21:13:53.612Z,16.30
2018-04-25T21:16:21.954Z,16.30
2018-04-25T21:18:49.933Z,16.10
2018-04-25T21:21:17.599Z,15.60
2018-04-25T21:23:47.135Z,15.10
2018-04-25T21:26:17.517Z,14.60
2018-04-25T21:28:45.479Z,14.30
2018-04-25T21:31:13.141Z,14.10
2018-04-25T21:33:41.208Z,13.90
2018-04-25T21:36:08.897Z,13.80
2018-04-25T21:38:37.872Z,13.80
2018-04-25T21:41:05.912Z,13.70
2018-04-25T21:43:34.949Z,13.70
2018-04-25T21:46:02.630Z,13.70
2018-04-25T21:48:31.086Z,13.70
2018-04-25T21:50:58.801Z,13.70
2018-04-25T21:53:26.450Z,13.70
2018-04-25T21:55:54.122Z,13.70
2018-04-25T21:58:21.838Z,13.60
2018-04-25T22:00:49.622Z,13.60
2018-04-25T22:03:17.340Z,13.70
2018-04-25T22:05:45.070Z,13.60
2018-04-25T22:08:12.759Z,13.50
2018-04-25T22:10:40.473Z,13.50
2018-04-25T22:13:08.183Z,13.50
2018-04-25T22:15:35.833Z,13.50
2018-04-25T22:18:03.531Z,13.50
2018-04-25T22:20:31.207Z,13.50
2018-04-25T22:22:58.860Z,13.50
2018-04-25T22:25:26.551Z,13.50
2018-04-25T22:27:54.217Z,13.50
2018-04-25T22:30:21.870Z,13.60
2018-04-25T22:32:50.599Z,13.60
2018-04-25T22:35:18.287Z,13.60
2018-04-25T22:37:45.970Z,13.70
2018-04-25T22:40:13.686Z,13.80
2018-04-25T22:42:41.371Z,13.70
2018-04-25T22:45:09.771Z,13.70
2018-04-25T22:47:37.469Z,13.70
2018-04-25T22:50:05.166Z,13.60
2018-04-25T22:52:33.591Z,13.70
2018-04-25T22:55:01.251Z,13.70
2018-04-25T22:57:28.933Z,13.70
2018-04-25T22:59:56.595Z,13.70
2018-04-25T23:02:24.317Z,13.90
2018-04-25T23:04:51.982Z,13.90
2018-04-25T23:07:19.624Z,13.90
2018-04-25T23:09:47.309Z,13.90
2018-04-25T23:12:15.016Z,13.90
2018-04-25T23:14:42.670Z,13.90
2018-04-25T23:17:10.364Z,13.80
2018-04-25T23:19:38.814Z,13.70
2018-04-25T23:22:06.447Z,13.70
2018-04-25T23:24:34.139Z,13.60
2018-04-25T23:27:01.851Z,13.60
2018-04-25T23:29:29.591Z,13.60
2018-04-25T23:31:57.277Z,13.60
2018-04-25T23:34:24.974Z,13.70
2018-04-25T23:36:52.645Z,13.80
2018-04-25T23:39:20.313Z,13.80
2018-04-25T23:41:48.748Z,13.70
2018-04-25T23:44:16.402Z,13.70
2018-04-25T23:46:44.090Z,13.70
2018-04-25T23:49:11.761Z,13.60
2018-04-25T23:51:39.398Z,13.60
2018-04-25T23:54:07.068Z,13.60
2018-04-25T23:56:34.730Z,13.60
2018-04-25T23:59:02.376Z,13.60
